KSLG/SLG METAR and TAF weather

Enter ICAO airport designator
Station Type Date Time Source
KSLG METAR 2019/08/19 06:56 UTC NOAA

KSLG 190656Z AUTO 13004KT 6SM HZ BKN095 24/20 A2999 RMK AO2 SLP144 T02440200


Station Type Date Time Source
KSLG Decoded METAR 2019/08/19 06:56 UTC NOAA

Station name not available
Aug 19, 2019 - 02:56 AM EDT / 2019.08.19 0656 UTC
Wind: from the SE (130 degrees) at 5 MPH (4 KT):0
Visibility: 6 mile(s):0
Sky conditions: mostly cloudy
Weather: haze
Temperature: 75.9 F (24.4 C)
Dew Point: 68.0 F (20.0 C)
Relative Humidity: 76%
Pressure (altimeter): 29.99 in. Hg (1015 hPa)
ob: KSLG 190656Z AUTO 13004KT 6SM HZ BKN095 24/20 A2999 RMK AO2 SLP144 T02440200
cycle: 7

Station Type Date Time Source
KSLG TAF UTC NOAA

Error!

Example: see airport list